Taurus — 2CPB4 — position and weather

sailwx.info

Track history (hours):
 
Tides and Currents Weather Stations Pressure Air Temp Water Temp Dewpoint Dewpoint Depression Visibility Wind Speed Wind Dir Waves Ship Positions

Taurus

Last reported at 2016-May-21 16:33 UTC. Time now 2016-May-30 12:42 UTC.
Position N 01°57' E 102°16'.
Warning: this ship's position is 8 days out of date.

Length 292 m; draft 12.1 m.

Type: Cargo ship. MMSI: 235074621.

Date/timePositionNaut miles runAvg speedWind from/ knotsBaromVisibWave heightAir tempDewpointWater temp
2016-May-21 16:33N 01°57' E 102°16'8 8.0
2016-May-21 15:31N 01°53' E 102°23'7 7.4
2016-May-21 14:32N 01°50' E 102°30'9 7.3
2016-May-21 13:15N 01°46' E 102°38'5 7.1
2016-May-21 12:34N 01°43' E 102°43'61 8.7
2016-May-21 05:33N 01°12' E 103°35'8 8.3
2016-May-21 04:33N 01°09' E 103°43'9 8.9
2016-May-21 03:33N 01°12' E 103°51'7 6.8
2016-May-21 02:28N 01°16' E 103°57'0 0.0
2016-May-21 01:28N 01°16' E 103°57'0 0.0
2016-May-21 00:25N 01°16' E 103°57'0 0.1
2016-May-20 23:10N 01°16' E 103°57'0 0.0
2016-May-20 22:31N 01°16' E 103°57'0 0.0
2016-May-20 21:28N 01°16' E 103°57'0 0.0
2016-May-20 20:16N 01°16' E 103°57'0 0.1
2016-May-20 19:31N 01°16' E 103°57'0 0.1
2016-May-20 18:28N 01°16' E 103°57'0 0.0
2016-May-20 17:13N 01°16' E 103°57'0 0.0
2016-May-20 16:25N 01°16' E 103°57'0 0.3
2016-May-20 15:28N 01°16' E 103°57'0 0.1
2016-May-20 14:28N 01°16' E 103°57'0 0.0
2016-May-20 13:25N 01°16' E 103°57'0 0.1
2016-May-20 10:04N 01°16' E 103°57'0 0.1
2016-May-20 09:31N 01°16' E 103°57'0 0.0
2016-May-20 08:28N 01°16' E 103°57'0 0.0
2016-May-20 07:28N 01°16' E 103°57'0 0.2
2016-May-20 06:33N 01°16' E 103°57'3 3.3
2016-May-20 05:33N 01°16' E 104°00'7 6.7
2016-May-20 04:33N 01°17' E 104°07'  
Track history (hours):
 
Tides and Currents Weather Stations Pressure Air Temp Water Temp Dewpoint Dewpoint Depression Visibility Wind Speed Wind Dir Waves Ship Positions

Taurus

Last reported at 2016-May-21 16:33 UTC. Time now 2016-May-30 12:42 UTC.
Position N 01°57' E 102°16'.
Warning: this ship's position is 8 days out of date.

Length 292 m; draft 12.1 m.

Type: Cargo ship. MMSI: 235074621.

Date/timePositionNaut miles runAvg speedWind from/ knotsBaromVisibWave heightAir tempDewpointWater temp
2016-May-21 16:33N 01°57' E 102°16'8 8.0
2016-May-21 15:31N 01°53' E 102°23'7 7.4
2016-May-21 14:32N 01°50' E 102°30'9 7.3
2016-May-21 13:15N 01°46' E 102°38'5 7.1
2016-May-21 12:34N 01°43' E 102°43'61 8.7
2016-May-21 05:33N 01°12' E 103°35'8 8.3
2016-May-21 04:33N 01°09' E 103°43'9 8.9
2016-May-21 03:33N 01°12' E 103°51'7 6.8
2016-May-21 02:28N 01°16' E 103°57'0 0.0
2016-May-21 01:28N 01°16' E 103°57'0 0.0
2016-May-21 00:25N 01°16' E 103°57'0 0.1
2016-May-20 23:10N 01°16' E 103°57'0 0.0
2016-May-20 22:31N 01°16' E 103°57'0 0.0
2016-May-20 21:28N 01°16' E 103°57'0 0.0
2016-May-20 20:16N 01°16' E 103°57'0 0.1
2016-May-20 19:31N 01°16' E 103°57'0 0.1
2016-May-20 18:28N 01°16' E 103°57'0 0.0
2016-May-20 17:13N 01°16' E 103°57'0 0.0
2016-May-20 16:25N 01°16' E 103°57'0 0.3
2016-May-20 15:28N 01°16' E 103°57'0 0.1
2016-May-20 14:28N 01°16' E 103°57'0 0.0
2016-May-20 13:25N 01°16' E 103°57'0 0.1
2016-May-20 10:04N 01°16' E 103°57'0 0.1
2016-May-20 09:31N 01°16' E 103°57'0 0.0
2016-May-20 08:28N 01°16' E 103°57'0 0.0
2016-May-20 07:28N 01°16' E 103°57'0 0.2
2016-May-20 06:33N 01°16' E 103°57'3 3.3
2016-May-20 05:33N 01°16' E 104°00'7 6.7
2016-May-20 04:33N 01°17' E 104°07'  

Dump ship's entire track history